Terminal Aerodrome Forecast
Issued by NWS

Home | Current Version | Previous Version | Text Only | Print | Product List | Glossary On
Versions: 1 2 3 4 5 6 7 8 9 10 11 12 13 14 15 16 17 18 19 20
428
FTUS41 KOKX 292043 AAA
TAFSWF
TAF AMD
KSWF 292043Z 2921/3024 21009KT P6SM SCT050 BKN120
     FM300400 18005KT 4SM -SHRA BR BKN050 OVC120
     FM300600 VRB04KT 3SM SHRA BR SCT015 BKN025
     FM300800 VRB04KT 2SM SHRA BR SCT007 BKN015
     FM301000 22006KT 3SM SHRA BR SCT005 OVC012
     FM302200 VRB04KT 5SM SHRA OVC020
      AMD NOT SKED=

USA.gov is the U.S. government's official web portal to all federal, state and local government web resources and services.